createdAt,value
2018-09-08T00:00:08.472Z,90.00
2018-09-08T00:02:36.176Z,90.00
2018-09-08T00:05:03.988Z,90.40
2018-09-08T00:07:37.957Z,90.30
2018-09-08T00:10:07.271Z,90.60
2018-09-08T00:12:35.519Z,90.70
2018-09-08T00:15:08.891Z,90.70
2018-09-08T00:17:42.102Z,90.70
2018-09-08T00:20:15.204Z,90.70
2018-09-08T00:22:48.446Z,90.70
2018-09-08T00:25:21.621Z,90.80
2018-09-08T00:27:55.679Z,90.60
2018-09-08T00:30:23.402Z,90.50
2018-09-08T00:32:51.028Z,90.50
2018-09-08T00:35:18.744Z,90.60
2018-09-08T00:37:46.385Z,90.90
2018-09-08T00:40:14.032Z,91.10
2018-09-08T00:42:41.657Z,91.20
2018-09-08T00:45:09.352Z,91.20
2018-09-08T00:47:36.944Z,90.90
2018-09-08T00:50:04.766Z,90.90
2018-09-08T00:52:32.366Z,91.10
2018-09-08T00:55:00.394Z,91.10
2018-09-08T00:57:28.066Z,91.20
2018-09-08T00:59:55.770Z,91.20
2018-09-08T01:02:23.398Z,91.10
2018-09-08T01:04:51.112Z,91.10
2018-09-08T01:07:24.424Z,91.30
2018-09-08T01:09:52.035Z,91.60
2018-09-08T01:12:19.662Z,91.80
2018-09-08T01:14:47.363Z,91.60
2018-09-08T01:17:15.122Z,91.60
2018-09-08T01:19:42.786Z,91.60
2018-09-08T01:22:10.416Z,91.30
2018-09-08T01:24:38.112Z,91.20
2018-09-08T01:27:05.769Z,91.50
2018-09-08T01:29:33.412Z,91.50
2018-09-08T01:32:01.072Z,91.60
2018-09-08T01:34:28.721Z,91.30
2018-09-08T01:36:56.339Z,91.20
2018-09-08T01:39:24.018Z,91.00
2018-09-08T01:41:51.687Z,91.10
2018-09-08T01:44:19.353Z,91.10
2018-09-08T01:46:47.010Z,91.30
2018-09-08T01:49:14.834Z,91.10
2018-09-08T01:51:42.566Z,91.10
2018-09-08T01:54:10.294Z,91.10
2018-09-08T01:56:37.950Z,90.90
2018-09-08T01:59:06.402Z,91.00
2018-09-08T02:01:34.046Z,91.30
2018-09-08T02:04:01.775Z,91.10
2018-09-08T02:06:29.358Z,91.10
2018-09-08T02:08:57.150Z,91.30
2018-09-08T02:11:24.900Z,91.40
2018-09-08T02:13:52.578Z,91.60
2018-09-08T02:16:20.322Z,91.60
2018-09-08T02:18:48.030Z,91.50
2018-09-08T02:21:15.760Z,91.60
2018-09-08T02:23:43.408Z,91.50
2018-09-08T02:26:11.064Z,91.50
2018-09-08T02:28:38.612Z,91.40
2018-09-08T02:31:06.368Z,91.60
2018-09-08T02:33:34.002Z,91.60
2018-09-08T02:36:01.643Z,91.60
2018-09-08T02:38:29.260Z,91.60
2018-09-08T02:40:56.960Z,91.70
2018-09-08T02:43:24.644Z,91.80
2018-09-08T02:45:52.300Z,92.20
2018-09-08T02:48:19.942Z,92.30
2018-09-08T02:50:46.446Z,92.40
2018-09-08T02:53:13.787Z,92.30
2018-09-08T02:55:40.418Z,92.30
2018-09-08T02:58:06.919Z,92.20
2018-09-08T03:00:33.697Z,92.20
2018-09-08T03:03:00.184Z,92.30
2018-09-08T03:05:26.683Z,92.60
2018-09-08T03:07:53.215Z,92.80
2018-09-08T03:10:20.878Z,93.00
2018-09-08T03:12:47.436Z,93.40
2018-09-08T03:15:13.974Z,93.60
2018-09-08T03:17:40.554Z,93.50
2018-09-08T03:20:07.173Z,93.60
2018-09-08T03:22:33.731Z,93.50
2018-09-08T03:25:00.302Z,93.50
2018-09-08T03:27:26.847Z,93.50
2018-09-08T03:29:53.497Z,93.60
2018-09-08T03:32:20.111Z,93.80
2018-09-08T03:34:46.634Z,93.80
2018-09-08T03:37:13.153Z,94.10
2018-09-08T03:39:39.682Z,94.20
2018-09-08T03:42:06.220Z,94.20
2018-09-08T03:44:32.740Z,94.10
2018-09-08T03:46:59.498Z,94.20
2018-09-08T03:49:26.082Z,94.30
2018-09-08T03:51:52.638Z,94.20
2018-09-08T03:54:19.178Z,94.30
2018-09-08T03:56:45.731Z,94.10
2018-09-08T03:59:12.283Z,94.00
2018-09-08T04:01:38.794Z,93.70
2018-09-08T04:04:06.722Z,93.80
2018-09-08T04:06:34.338Z,93.70
2018-09-08T04:09:02.143Z,93.70
2018-09-08T04:11:30.147Z,94.30
2018-09-08T04:13:57.806Z,93.80
2018-09-08T04:16:25.585Z,94.10
2018-09-08T04:18:53.519Z,94.00
2018-09-08T04:21:21.168Z,94.00
2018-09-08T04:23:48.886Z,94.30
2018-09-08T04:26:16.608Z,94.50
2018-09-08T04:28:44.260Z,94.90
2018-09-08T04:31:11.904Z,94.80
2018-09-08T04:33:39.795Z,94.90
2018-09-08T04:36:07.436Z,94.90
2018-09-08T04:38:35.087Z,95.00
2018-09-08T04:41:02.801Z,95.20
2018-09-08T04:43:30.445Z,95.40
2018-09-08T04:45:58.111Z,95.20
2018-09-08T04:48:25.859Z,95.40
2018-09-08T04:50:53.543Z,95.30
2018-09-08T04:53:21.302Z,95.20
2018-09-08T04:55:48.963Z,95.10
2018-09-08T04:58:16.613Z,94.80
2018-09-08T05:00:44.268Z,94.70
2018-09-08T05:03:12.299Z,94.80
2018-09-08T05:05:40.020Z,94.60
2018-09-08T05:08:07.692Z,94.80
2018-09-08T05:10:35.647Z,95.10
2018-09-08T05:13:03.354Z,95.20
2018-09-08T05:15:31.361Z,95.10
2018-09-08T05:17:59.068Z,94.90
2018-09-08T05:20:26.735Z,95.10
2018-09-08T05:22:54.695Z,95.20
2018-09-08T05:25:22.401Z,95.10
2018-09-08T05:27:50.046Z,95.60
2018-09-08T05:30:17.699Z,96.20
2018-09-08T05:32:45.425Z,96.30
2018-09-08T05:35:12.988Z,96.40
2018-09-08T05:37:40.631Z,96.40
2018-09-08T05:40:08.271Z,96.40
2018-09-08T05:42:35.991Z,96.60
2018-09-08T05:45:03.734Z,96.40
2018-09-08T05:47:31.375Z,96.40
2018-09-08T05:49:58.966Z,96.30
2018-09-08T05:52:26.595Z,96.40
2018-09-08T05:54:54.282Z,97.00
2018-09-08T05:57:21.894Z,97.30
2018-09-08T05:59:49.890Z,97.40
2018-09-08T06:02:17.620Z,97.30
2018-09-08T06:04:45.316Z,97.30
2018-09-08T06:07:13.391Z,97.20
2018-09-08T06:09:41.039Z,97.30
2018-09-08T06:12:09.018Z,97.50
2018-09-08T06:14:36.855Z,97.30
2018-09-08T06:17:04.576Z,97.00
2018-09-08T06:19:32.299Z,97.20
2018-09-08T06:21:59.930Z,97.30
2018-09-08T06:24:27.985Z,97.40
2018-09-08T06:26:55.577Z,97.30
2018-09-08T06:29:23.570Z,97.20
2018-09-08T06:31:51.277Z,96.80
2018-09-08T06:34:19.623Z,96.60
2018-09-08T06:36:47.275Z,95.40
2018-09-08T06:39:15.291Z,93.60
2018-09-08T06:41:43.200Z,88.50
2018-09-08T06:44:10.779Z,80.90
2018-09-08T06:46:38.690Z,77.90
2018-09-08T06:49:06.486Z,71.50
2018-09-08T06:51:35.245Z,70.10
2018-09-08T06:54:03.082Z,65.50
2018-09-08T06:56:30.748Z,62.20
2018-09-08T06:58:58.555Z,62.20
2018-09-08T07:01:26.308Z,58.80
2018-09-08T07:03:54.032Z,58.20
2018-09-08T07:06:21.731Z,61.20
2018-09-08T07:08:49.382Z,57.20
2018-09-08T07:11:17.058Z,57.00
2018-09-08T07:13:44.690Z,58.10
2018-09-08T07:16:12.450Z,56.30
2018-09-08T07:18:40.138Z,54.70
2018-09-08T07:21:07.827Z,53.40
2018-09-08T07:23:35.404Z,52.20
2018-09-08T07:26:03.275Z,52.20
2018-09-08T07:28:31.498Z,50.90
2018-09-08T07:30:59.087Z,52.60
2018-09-08T07:33:26.875Z,50.20
2018-09-08T07:35:54.533Z,46.10
2018-09-08T07:38:22.178Z,43.50
2018-09-08T07:40:49.998Z,44.80
2018-09-08T07:43:17.625Z,43.80
2018-09-08T07:45:45.311Z,45.50
2018-09-08T07:48:13.257Z,42.90
2018-09-08T07:50:41.043Z,43.40
2018-09-08T07:53:08.635Z,41.60
2018-09-08T07:55:36.247Z,41.40
2018-09-08T07:58:03.999Z,39.20
2018-09-08T08:00:31.643Z,39.80
2018-09-08T08:02:59.230Z,39.40
2018-09-08T08:05:26.899Z,39.10
2018-09-08T08:07:54.514Z,37.30
2018-09-08T08:10:22.165Z,38.90
2018-09-08T08:12:49.796Z,38.70
2018-09-08T08:15:17.491Z,35.20
2018-09-08T08:17:45.166Z,35.20
2018-09-08T08:20:12.768Z,35.60
2018-09-08T08:22:40.524Z,34.20
2018-09-08T08:25:08.322Z,32.70
2018-09-08T08:27:35.978Z,32.60
2018-09-08T08:30:03.708Z,31.80
2018-09-08T08:32:31.429Z,33.20
2018-09-08T08:34:59.136Z,30.50
2018-09-08T08:37:26.783Z,30.10
2018-09-08T08:39:54.454Z,32.50
2018-09-08T08:42:22.058Z,31.70
2018-09-08T08:44:49.732Z,32.30
2018-09-08T08:47:17.463Z,32.70
2018-09-08T08:49:51.264Z,33.50
2018-09-08T08:52:30.148Z,30.70
2018-09-08T08:54:57.794Z,30.00
2018-09-08T08:57:25.371Z,31.90
2018-09-08T08:59:53.035Z,32.10
2018-09-08T09:02:20.783Z,32.10
2018-09-08T09:04:48.388Z,31.10
2018-09-08T09:07:16.376Z,32.30
2018-09-08T09:09:44.057Z,33.80
2018-09-08T09:12:11.702Z,32.60
2018-09-08T09:14:39.718Z,33.50
2018-09-08T09:17:07.154Z,35.30
2018-09-08T09:19:46.040Z,37.50
2018-09-08T09:22:26.075Z,39.60
2018-09-08T09:25:09.907Z,37.90
2018-09-08T09:27:46.831Z,39.00
2018-09-08T09:30:15.165Z,39.70
2018-09-08T09:32:42.818Z,40.50
2018-09-08T09:35:12.119Z,41.20
2018-09-08T09:37:39.815Z,39.20
2018-09-08T09:40:08.113Z,38.20
2018-09-08T09:42:35.806Z,38.10
2018-09-08T09:45:03.502Z,37.20
2018-09-08T09:47:31.228Z,37.70
2018-09-08T09:49:58.904Z,38.30
2018-09-08T09:52:26.587Z,38.50
2018-09-08T09:54:54.555Z,38.30
2018-09-08T09:57:22.281Z,37.80
2018-09-08T09:59:49.931Z,38.20
2018-09-08T10:02:47.912Z,37.60
2018-09-08T10:05:18.065Z,36.60
2018-09-08T10:07:45.942Z,36.50
2018-09-08T10:10:22.781Z,34.90
2018-09-08T10:12:50.460Z,35.00
2018-09-08T10:15:18.158Z,35.60
2018-09-08T10:17:45.881Z,34.60
2018-09-08T10:20:17.843Z,35.20
2018-09-08T10:22:45.537Z,36.30
2018-09-08T10:25:14.466Z,37.60
2018-09-08T10:27:42.869Z,36.70
2018-09-08T10:30:10.938Z,36.10
2018-09-08T10:32:38.850Z,35.20
2018-09-08T10:35:06.573Z,35.60
2018-09-08T10:37:34.348Z,35.50
2018-09-08T10:40:01.935Z,35.30
2018-09-08T10:42:29.569Z,35.10
2018-09-08T10:44:57.181Z,34.80
2018-09-08T10:47:24.758Z,34.20
2018-09-08T10:49:52.432Z,34.50
2018-09-08T10:52:22.662Z,35.20
2018-09-08T10:54:50.255Z,34.30
2018-09-08T10:57:18.348Z,34.20
2018-09-08T10:59:46.017Z,32.70
2018-09-08T11:02:13.976Z,34.00
2018-09-08T11:04:41.462Z,35.20
2018-09-08T11:07:09.230Z,34.90
2018-09-08T11:09:37.051Z,35.90
2018-09-08T11:12:04.651Z,35.00
2018-09-08T11:14:32.434Z,35.60
2018-09-08T11:17:00.084Z,36.70
2018-09-08T11:19:27.751Z,36.90
2018-09-08T11:21:55.514Z,36.70
2018-09-08T11:24:23.183Z,38.40
2018-09-08T11:26:50.823Z,37.40
2018-09-08T11:29:18.426Z,35.30
2018-09-08T11:31:46.026Z,34.60
2018-09-08T11:34:13.660Z,36.10
2018-09-08T11:36:41.314Z,36.00
2018-09-08T11:39:08.923Z,36.60
2018-09-08T11:41:36.995Z,36.10
